createdAt,value
2019-01-23T00:00:20.063Z,111.00
2019-01-23T00:01:20.047Z,109.10
2019-01-23T00:02:20.014Z,107.40
2019-01-23T00:03:20.000Z,103.50
2019-01-23T00:04:20.010Z,104.90
2019-01-23T00:05:19.972Z,103.30
2019-01-23T00:06:19.970Z,101.70
2019-01-23T00:07:19.956Z,106.70
2019-01-23T00:08:19.954Z,101.80
2019-01-23T00:09:19.949Z,102.00
2019-01-23T00:10:19.980Z,112.30
2019-01-23T00:11:19.914Z,109.80
2019-01-23T00:12:19.901Z,110.10
2019-01-23T00:13:19.894Z,98.30
2019-01-23T00:14:19.882Z,105.90
2019-01-23T00:15:19.887Z,102.10
2019-01-23T00:16:19.862Z,105.00
2019-01-23T00:17:19.844Z,107.10
2019-01-23T00:18:19.836Z,108.70
2019-01-23T00:19:19.826Z,103.60
2019-01-23T00:20:19.830Z,107.50
2019-01-23T00:21:19.806Z,107.90
2019-01-23T00:22:19.803Z,107.00
2019-01-23T00:23:19.784Z,107.00
2019-01-23T00:24:19.766Z,101.30
2019-01-23T00:25:19.780Z,99.20
2019-01-23T00:26:19.747Z,97.30
2019-01-23T00:27:19.756Z,100.50
2019-01-23T00:28:19.732Z,97.20
2019-01-23T00:29:19.723Z,105.00
2019-01-23T00:30:19.769Z,99.10
2019-01-23T00:31:19.694Z,95.00
2019-01-23T00:32:19.680Z,94.80
2019-01-23T00:33:19.670Z,103.30
2019-01-23T00:34:19.734Z,98.80
2019-01-23T00:35:19.686Z,103.70
2019-01-23T00:36:19.640Z,100.90
2019-01-23T00:37:20.528Z,106.00
2019-01-23T00:38:19.837Z,100.10
2019-01-23T00:39:19.689Z,104.50
2019-01-23T00:40:19.600Z,99.90
2019-01-23T00:41:19.619Z,100.00
2019-01-23T00:42:19.582Z,101.90
2019-01-23T00:43:19.577Z,99.50
2019-01-23T00:44:19.556Z,100.30
2019-01-23T00:45:19.545Z,102.20
2019-01-23T00:46:19.558Z,99.20
2019-01-23T00:47:19.530Z,105.50
2019-01-23T00:48:19.515Z,100.20
2019-01-23T00:49:19.516Z,100.20
2019-01-23T00:50:19.488Z,101.90
2019-01-23T00:51:19.518Z,103.40
2019-01-23T00:52:19.498Z,97.50
2019-01-23T00:53:19.452Z,101.10
2019-01-23T00:54:19.447Z,101.70
2019-01-23T00:55:19.442Z,103.10
2019-01-23T00:56:19.437Z,95.90
2019-01-23T00:57:19.412Z,102.20
2019-01-23T00:58:19.408Z,93.30
2019-01-23T00:59:19.398Z,99.50
2019-01-23T01:00:19.408Z,97.10
2019-01-23T01:01:19.380Z,103.70
2019-01-23T01:02:19.354Z,101.70
2019-01-23T01:03:19.364Z,100.40
2019-01-23T01:04:19.340Z,97.50
2019-01-23T01:05:19.323Z,100.80
2019-01-23T01:06:19.330Z,102.30
2019-01-23T01:07:19.307Z,100.50
2019-01-23T01:08:19.296Z,98.70
2019-01-23T01:09:19.284Z,104.10
2019-01-23T01:10:19.270Z,99.50
2019-01-23T01:11:19.276Z,92.20
2019-01-23T01:12:19.253Z,93.40
2019-01-23T01:13:19.239Z,97.70
2019-01-23T01:14:19.251Z,101.60
2019-01-23T01:15:19.222Z,97.90
2019-01-23T01:16:19.221Z,96.50
2019-01-23T01:17:19.224Z,101.60
2019-01-23T01:18:19.187Z,102.40
2019-01-23T01:19:19.176Z,98.60
2019-01-23T01:20:19.164Z,103.30
2019-01-23T01:21:19.174Z,100.60
2019-01-23T01:22:19.144Z,97.30
2019-01-23T01:23:19.129Z,100.80
2019-01-23T01:24:19.122Z,96.30
2019-01-23T01:25:19.112Z,101.10
2019-01-23T01:26:19.105Z,95.30
2019-01-23T01:27:19.104Z,99.70
2019-01-23T01:28:19.080Z,98.60
2019-01-23T01:29:19.135Z,100.60
2019-01-23T01:30:19.052Z,98.30
2019-01-23T01:31:19.055Z,95.50
2019-01-23T01:32:19.464Z,98.70
2019-01-23T01:33:19.029Z,104.20
2019-01-23T01:34:19.041Z,100.30
2019-01-23T01:35:18.998Z,102.50
2019-01-23T01:36:18.984Z,102.10
2019-01-23T01:37:18.996Z,100.50
2019-01-23T01:38:18.968Z,103.80
2019-01-23T01:39:18.967Z,101.20
2019-01-23T01:40:18.946Z,99.10
2019-01-23T01:41:18.939Z,103.90
2019-01-23T01:42:18.941Z,102.40
2019-01-23T01:43:18.996Z,108.10
2019-01-23T01:44:18.897Z,103.30
2019-01-23T01:45:18.892Z,105.00
2019-01-23T01:46:18.876Z,97.80
2019-01-23T01:47:18.882Z,110.60
2019-01-23T01:48:18.869Z,100.00
2019-01-23T01:49:18.845Z,105.80
2019-01-23T01:50:18.833Z,107.80
2019-01-23T01:51:18.827Z,106.60
2019-01-23T01:52:18.829Z,97.00
2019-01-23T01:53:18.800Z,103.00
2019-01-23T01:54:18.792Z,104.10
2019-01-23T01:55:18.794Z,105.10
2019-01-23T01:56:18.777Z,109.80
2019-01-23T01:57:18.782Z,104.10
2019-01-23T01:58:18.751Z,105.50
2019-01-23T01:59:18.741Z,103.10
2019-01-23T02:00:18.728Z,103.00
2019-01-23T02:01:18.717Z,112.40
2019-01-23T02:02:18.702Z,104.20
2019-01-23T02:03:18.708Z,107.70
2019-01-23T02:04:18.685Z,101.30
2019-01-23T02:05:18.673Z,115.50
2019-01-23T02:06:18.672Z,109.40
2019-01-23T02:07:18.648Z,109.60
2019-01-23T02:08:18.651Z,117.40
2019-01-23T02:09:18.638Z,99.60
2019-01-23T02:10:18.618Z,108.80
2019-01-23T02:11:18.636Z,104.00
2019-01-23T02:12:18.604Z,103.10
2019-01-23T02:13:18.629Z,108.10
2019-01-23T02:14:18.579Z,107.10
2019-01-23T02:15:18.566Z,104.90
2019-01-23T02:16:18.555Z,107.30
2019-01-23T02:17:18.548Z,110.70
2019-01-23T02:18:18.537Z,107.50
2019-01-23T02:19:18.548Z,108.20
2019-01-23T02:20:18.512Z,110.80
2019-01-23T02:21:18.498Z,106.60
2019-01-23T02:22:18.484Z,111.80
2019-01-23T02:23:18.498Z,106.30
2019-01-23T02:24:18.495Z,105.50
2019-01-23T02:25:18.454Z,112.00
2019-01-23T02:26:19.317Z,111.90
2019-01-23T02:27:18.435Z,106.20
2019-01-23T02:28:18.435Z,107.20
2019-01-23T02:29:18.432Z,106.10
2019-01-23T02:30:18.453Z,109.00
2019-01-23T02:31:18.391Z,105.50
2019-01-23T02:32:18.381Z,111.10
2019-01-23T02:33:18.401Z,112.40
2019-01-23T02:34:18.358Z,113.90
2019-01-23T02:35:18.353Z,106.70
2019-01-23T02:36:18.336Z,110.70
2019-01-23T02:37:18.331Z,106.80
2019-01-23T02:38:18.332Z,114.80
2019-01-23T02:39:18.298Z,109.90
2019-01-23T02:40:18.289Z,108.30
2019-01-23T02:41:18.283Z,109.40
2019-01-23T02:42:18.268Z,110.50
2019-01-23T02:43:18.305Z,110.80
2019-01-23T02:44:18.271Z,112.70
2019-01-23T02:45:18.234Z,107.40
2019-01-23T02:46:18.233Z,108.70
2019-01-23T02:47:18.217Z,113.10
2019-01-23T02:48:18.208Z,114.00
2019-01-23T02:49:18.212Z,118.20
2019-01-23T02:50:18.183Z,115.60
2019-01-23T02:51:18.174Z,115.60
2019-01-23T02:52:18.166Z,117.10
2019-01-23T02:53:18.150Z,116.50
2019-01-23T02:54:18.162Z,108.60
2019-01-23T02:55:18.144Z,115.00
2019-01-23T02:56:18.133Z,118.60
2019-01-23T02:57:18.110Z,115.30
2019-01-23T02:58:18.101Z,116.70
2019-01-23T02:59:18.174Z,116.40
2019-01-23T03:00:18.078Z,111.40
2019-01-23T03:01:18.074Z,123.40
2019-01-23T03:02:18.051Z,114.90
2019-01-23T03:03:18.060Z,121.50
2019-01-23T03:04:18.049Z,118.10
2019-01-23T03:05:18.026Z,114.10
2019-01-23T03:06:18.009Z,121.70
2019-01-23T03:07:18.019Z,118.90
2019-01-23T03:08:17.983Z,118.80
2019-01-23T03:09:17.991Z,113.00
2019-01-23T03:10:17.963Z,119.10
2019-01-23T03:11:17.953Z,113.60
2019-01-23T03:12:17.942Z,123.70
2019-01-23T03:13:17.939Z,125.20
2019-01-23T03:14:17.945Z,118.00
2019-01-23T03:15:17.912Z,121.10
2019-01-23T03:16:17.910Z,122.90
2019-01-23T03:17:17.890Z,115.20
2019-01-23T03:18:17.878Z,119.70
2019-01-23T03:19:17.887Z,119.20
2019-01-23T03:20:17.855Z,126.70
2019-01-23T03:21:17.844Z,119.20
2019-01-23T03:22:17.837Z,127.20
2019-01-23T03:23:17.824Z,120.10
2019-01-23T03:24:17.831Z,121.10
2019-01-23T03:25:17.801Z,125.90
2019-01-23T03:26:17.792Z,119.10
2019-01-23T03:27:17.783Z,117.80
2019-01-23T03:28:17.767Z,115.00
2019-01-23T03:29:24.486Z,127.90
2019-01-23T03:30:18.769Z,122.00
2019-01-23T03:31:17.736Z,117.90
2019-01-23T03:32:17.732Z,122.00
2019-01-23T03:33:17.724Z,122.40
2019-01-23T03:34:17.724Z,121.50
2019-01-23T03:35:17.693Z,120.70
2019-01-23T03:36:17.682Z,125.50
2019-01-23T03:37:17.671Z,125.30
2019-01-23T03:38:17.667Z,124.90
2019-01-23T03:39:17.681Z,120.00
2019-01-23T03:40:17.647Z,120.90
2019-01-23T03:41:17.623Z,119.90
2019-01-23T03:42:17.626Z,120.90
2019-01-23T03:43:17.605Z,125.60
2019-01-23T03:44:17.629Z,123.60
2019-01-23T03:45:17.602Z,121.60
2019-01-23T03:46:17.571Z,119.70
2019-01-23T03:47:17.563Z,114.30
2019-01-23T03:48:17.552Z,116.70
2019-01-23T03:49:17.539Z,126.50
2019-01-23T03:50:17.551Z,121.80
2019-01-23T03:51:17.528Z,127.50
2019-01-23T03:52:17.505Z,127.60
2019-01-23T03:53:17.498Z,126.20
2019-01-23T03:54:17.485Z,125.80
2019-01-23T03:55:17.495Z,122.40
2019-01-23T03:56:17.468Z,129.20
2019-01-23T03:57:17.455Z,118.90
2019-01-23T03:58:17.438Z,123.90
2019-01-23T03:59:17.430Z,125.00
2019-01-23T04:00:18.430Z,121.90
2019-01-23T04:01:17.407Z,126.70
2019-01-23T04:02:17.404Z,121.50
2019-01-23T04:03:17.393Z,120.40
2019-01-23T04:04:17.377Z,123.90
2019-01-23T04:05:17.378Z,126.60
2019-01-23T04:06:17.355Z,121.30
2019-01-23T04:07:17.346Z,120.20
2019-01-23T04:08:17.335Z,122.50
2019-01-23T04:09:17.322Z,121.70
2019-01-23T04:10:17.321Z,129.50
2019-01-23T04:11:17.298Z,128.40
2019-01-23T04:12:17.285Z,132.90
2019-01-23T04:13:17.282Z,128.10
2019-01-23T04:14:17.291Z,132.70
2019-01-23T04:15:17.273Z,131.20
2019-01-23T04:16:17.243Z,136.50
2019-01-23T04:17:17.240Z,128.50
2019-01-23T04:18:17.220Z,133.30
2019-01-23T04:19:17.217Z,135.50
2019-01-23T04:20:17.225Z,128.80
2019-01-23T04:21:17.196Z,134.20
2019-01-23T04:22:17.180Z,127.60
2019-01-23T04:23:17.184Z,126.10
2019-01-23T04:24:17.165Z,126.90
2019-01-23T04:25:17.172Z,129.10
2019-01-23T04:26:17.132Z,129.20
2019-01-23T04:27:17.123Z,129.50
2019-01-23T04:28:17.110Z,128.20
2019-01-23T04:29:17.100Z,124.60
2019-01-23T04:30:17.090Z,131.10
2019-01-23T04:31:17.103Z,131.60
2019-01-23T04:32:17.072Z,124.10
2019-01-23T04:33:17.054Z,140.40
2019-01-23T04:34:17.052Z,128.90
2019-01-23T04:35:17.037Z,132.70
2019-01-23T04:36:17.045Z,125.80
2019-01-23T04:37:17.016Z,131.00
2019-01-23T04:38:17.009Z,128.40
2019-01-23T04:39:16.991Z,131.60
2019-01-23T04:40:16.984Z,138.70
2019-01-23T04:41:16.986Z,131.30
2019-01-23T04:42:16.969Z,132.50
2019-01-23T04:43:16.950Z,128.60
2019-01-23T04:44:16.938Z,125.20
2019-01-23T04:45:16.927Z,126.30
2019-01-23T04:46:16.932Z,127.60
2019-01-23T04:47:16.914Z,132.10
2019-01-23T04:48:16.906Z,133.40
2019-01-23T04:49:16.893Z,128.10
2019-01-23T04:50:16.875Z,129.80
2019-01-23T04:51:17.018Z,134.20
2019-01-23T04:52:16.854Z,137.20
2019-01-23T04:53:16.852Z,131.40
2019-01-23T04:54:16.843Z,129.40
2019-01-23T04:55:16.818Z,135.70
2019-01-23T04:56:16.817Z,124.20
2019-01-23T04:57:16.800Z,123.70
2019-01-23T04:58:16.790Z,130.10
2019-01-23T04:59:16.786Z,128.90
2019-01-23T05:00:16.767Z,130.10
2019-01-23T05:01:16.804Z,127.40
2019-01-23T05:02:16.745Z,118.40
2019-01-23T05:03:16.737Z,118.20
2019-01-23T05:04:16.728Z,131.30
2019-01-23T05:05:16.721Z,130.30
2019-01-23T05:06:16.720Z,116.10
2019-01-23T05:07:16.700Z,124.40
2019-01-23T05:08:16.674Z,121.00
2019-01-23T05:09:16.668Z,124.60
2019-01-23T05:10:16.661Z,124.10
2019-01-23T05:11:16.644Z,131.40
2019-01-23T05:12:16.658Z,128.20
2019-01-23T05:13:16.624Z,129.70
2019-01-23T05:14:16.641Z,121.00
2019-01-23T05:15:16.623Z,130.90
2019-01-23T05:16:16.603Z,126.30
2019-01-23T05:17:16.599Z,121.00
2019-01-23T05:18:16.568Z,131.70
2019-01-23T05:19:16.557Z,130.20
2019-01-23T05:20:16.563Z,132.30
2019-01-23T05:21:16.536Z,136.50
2019-01-23T05:22:16.543Z,129.80
2019-01-23T05:23:16.518Z,128.00
2019-01-23T05:24:16.503Z,130.70
2019-01-23T05:25:16.519Z,132.90
2019-01-23T05:26:16.496Z,136.10
2019-01-23T05:27:16.502Z,134.10
2019-01-23T05:28:16.467Z,131.70
2019-01-23T05:29:16.457Z,123.40
2019-01-23T05:30:16.445Z,129.70
2019-01-23T05:31:16.437Z,125.60
2019-01-23T05:32:16.444Z,132.20
2019-01-23T05:33:16.412Z,127.40
2019-01-23T05:34:16.409Z,135.20
2019-01-23T05:35:16.384Z,128.80
2019-01-23T05:36:16.373Z,133.50
2019-01-23T05:37:16.395Z,127.40
2019-01-23T05:38:16.351Z,127.00
2019-01-23T05:39:16.350Z,132.70
2019-01-23T05:40:16.345Z,133.30
2019-01-23T05:41:16.316Z,119.00
2019-01-23T05:42:16.328Z,134.20
2019-01-23T05:43:16.313Z,129.50
2019-01-23T05:44:16.292Z,132.60
2019-01-23T05:45:16.295Z,128.50
2019-01-23T05:46:16.272Z,129.50
2019-01-23T05:47:16.268Z,130.90
2019-01-23T05:48:16.271Z,132.00
2019-01-23T05:49:16.249Z,129.80
2019-01-23T05:50:16.224Z,134.50
2019-01-23T05:51:16.220Z,130.10
2019-01-23T05:52:16.198Z,142.70
2019-01-23T05:53:16.242Z,127.50
2019-01-23T05:54:16.182Z,135.30
2019-01-23T05:55:16.173Z,133.00
2019-01-23T05:56:16.167Z,131.10
2019-01-23T05:57:16.163Z,131.60
2019-01-23T05:58:16.170Z,132.30
2019-01-23T05:59:16.129Z,130.40
2019-01-23T06:00:16.118Z,130.40
2019-01-23T06:01:16.113Z,135.20
2019-01-23T06:02:16.102Z,130.00
2019-01-23T06:03:16.103Z,128.60
2019-01-23T06:04:16.161Z,135.30
2019-01-23T06:05:16.069Z,136.30
2019-01-23T06:06:16.046Z,132.30
2019-01-23T06:07:16.052Z,132.00
2019-01-23T06:08:16.061Z,132.90
2019-01-23T06:09:16.042Z,141.10
2019-01-23T06:10:16.034Z,129.10
2019-01-23T06:11:15.996Z,140.30
2019-01-23T06:12:16.004Z,143.70
2019-01-23T06:13:16.004Z,130.60
2019-01-23T06:14:15.960Z,138.10
2019-01-23T06:15:16.030Z,137.20
2019-01-23T06:16:15.952Z,138.10
2019-01-23T06:17:15.942Z,138.80
2019-01-23T06:18:15.977Z,143.80
2019-01-23T06:19:15.907Z,144.00
2019-01-23T06:20:15.937Z,138.40
2019-01-23T06:21:15.898Z,131.60
2019-01-23T06:22:15.953Z,142.50
2019-01-23T06:23:15.918Z,138.00
2019-01-23T06:24:15.856Z,138.30
2019-01-23T06:25:15.856Z,150.10
2019-01-23T06:26:15.834Z,139.40
2019-01-23T06:27:15.828Z,139.70
2019-01-23T06:28:15.833Z,144.20
2019-01-23T06:29:15.801Z,146.50
2019-01-23T06:30:15.797Z,135.30
2019-01-23T06:31:15.803Z,134.90
2019-01-23T06:32:15.772Z,138.50
2019-01-23T06:33:15.783Z,145.70
2019-01-23T06:34:15.742Z,138.10
2019-01-23T06:35:15.973Z,148.40
2019-01-23T06:36:15.722Z,145.40
2019-01-23T06:37:15.734Z,137.80
2019-01-23T06:38:15.739Z,143.60
2019-01-23T06:39:15.706Z,149.60
2019-01-23T06:40:15.676Z,138.70
2019-01-23T06:41:15.676Z,144.20
2019-01-23T06:42:15.676Z,153.00
2019-01-23T06:43:15.650Z,150.30
2019-01-23T06:44:15.690Z,140.50
2019-01-23T06:45:15.638Z,154.90
2019-01-23T06:46:15.624Z,151.30
2019-01-23T06:47:15.606Z,145.70
2019-01-23T06:48:15.598Z,149.70
2019-01-23T06:49:15.724Z,152.90
2019-01-23T06:50:15.568Z,146.00
2019-01-23T06:51:15.560Z,156.70
2019-01-23T06:52:15.547Z,150.20
2019-01-23T06:53:15.547Z,147.90
2019-01-23T06:54:15.564Z,153.20
2019-01-23T06:55:15.518Z,148.80
2019-01-23T06:56:15.505Z,161.00
2019-01-23T06:57:15.496Z,148.30
2019-01-23T06:58:15.479Z,154.90
2019-01-23T06:59:15.495Z,166.00
2019-01-23T07:00:17.335Z,168.10
2019-01-23T07:01:15.458Z,160.90
2019-01-23T07:02:15.444Z,165.60
2019-01-23T07:03:15.456Z,162.60
2019-01-23T07:04:15.437Z,169.00
2019-01-23T07:05:15.428Z,157.50
2019-01-23T07:06:15.398Z,160.60
2019-01-23T07:07:15.402Z,164.30
2019-01-23T07:08:15.378Z,161.60
2019-01-23T07:09:15.362Z,165.20
2019-01-23T07:10:15.368Z,163.50
2019-01-23T07:11:15.343Z,157.70
2019-01-23T07:12:15.330Z,168.50
2019-01-23T07:13:15.319Z,165.20
2019-01-23T07:14:15.304Z,164.20
2019-01-23T07:15:15.317Z,171.80
2019-01-23T07:16:15.300Z,175.50
2019-01-23T07:17:15.286Z,167.10
2019-01-23T07:18:15.272Z,170.90
2019-01-23T07:19:15.257Z,176.10
2019-01-23T07:20:15.261Z,177.70
2019-01-23T07:21:15.235Z,176.70
2019-01-23T07:22:15.234Z,172.00
2019-01-23T07:23:15.226Z,177.60
2019-01-23T07:24:15.224Z,172.90
2019-01-23T07:25:15.214Z,175.30
2019-01-23T07:26:15.176Z,179.80
2019-01-23T07:27:15.171Z,182.80
2019-01-23T07:28:15.177Z,183.10
2019-01-23T07:29:15.197Z,189.20
2019-01-23T07:30:15.162Z,184.60
2019-01-23T07:31:15.119Z,186.90
2019-01-23T07:32:15.110Z,180.90
2019-01-23T07:33:15.111Z,182.40
2019-01-23T07:34:15.110Z,185.30
2019-01-23T07:35:15.110Z,184.70
2019-01-23T07:36:15.068Z,195.60
2019-01-23T07:37:15.073Z,183.10
2019-01-23T07:38:15.048Z,193.50
2019-01-23T07:39:15.041Z,191.60
2019-01-23T07:40:15.061Z,205.50
2019-01-23T07:41:15.014Z,186.70
2019-01-23T07:42:14.996Z,196.20
2019-01-23T07:43:14.990Z,192.10
2019-01-23T07:44:15.054Z,190.30
2019-01-23T07:45:14.986Z,201.60
2019-01-23T07:46:14.981Z,197.30
2019-01-23T07:47:14.956Z,195.30
2019-01-23T07:48:14.942Z,205.80
2019-01-23T07:49:14.925Z,193.60
2019-01-23T07:50:14.910Z,198.00
2019-01-23T07:51:14.931Z,193.20
2019-01-23T07:52:14.900Z,215.60
2019-01-23T07:53:14.893Z,211.40
2019-01-23T07:54:14.872Z,197.50
2019-01-23T07:55:14.863Z,205.90
2019-01-23T07:56:14.865Z,206.20
2019-01-23T07:57:14.840Z,207.00
2019-01-23T07:58:14.828Z,204.90
2019-01-23T07:59:14.818Z,206.80
2019-01-23T08:00:14.814Z,212.50
2019-01-23T08:01:14.813Z,208.60
2019-01-23T08:02:14.792Z,214.20
2019-01-23T08:03:14.778Z,212.00
2019-01-23T08:04:14.766Z,197.40
2019-01-23T08:05:19.427Z,212.90
2019-01-23T08:06:15.760Z,219.40
2019-01-23T08:07:14.732Z,218.50
2019-01-23T08:08:14.752Z,205.50
2019-01-23T08:09:14.721Z,210.40
2019-01-23T08:10:14.718Z,209.60
2019-01-23T08:11:14.727Z,217.70
2019-01-23T08:12:14.684Z,217.20
2019-01-23T08:13:14.730Z,217.70
2019-01-23T08:14:14.696Z,219.60
2019-01-23T08:15:14.671Z,226.00
2019-01-23T08:16:17.382Z,222.40
2019-01-23T08:17:15.879Z,226.50
2019-01-23T08:18:14.610Z,219.50
2019-01-23T08:19:14.626Z,233.90
2019-01-23T08:20:14.619Z,226.80
2019-01-23T08:21:14.627Z,219.90
2019-01-23T08:22:14.586Z,221.90
2019-01-23T08:23:14.565Z,223.20
2019-01-23T08:24:14.553Z,229.10
2019-01-23T08:25:14.556Z,219.80
2019-01-23T08:26:14.577Z,226.70
2019-01-23T08:27:14.533Z,225.50
2019-01-23T08:28:14.524Z,236.00
2019-01-23T08:29:14.514Z,237.00
2019-01-23T08:30:14.487Z,229.30
2019-01-23T08:31:14.505Z,227.90
2019-01-23T08:32:14.486Z,230.80
2019-01-23T08:33:14.500Z,238.60
2019-01-23T08:34:14.454Z,238.00
2019-01-23T08:35:14.430Z,236.00
2019-01-23T08:36:14.439Z,231.00
2019-01-23T08:37:14.436Z,231.60
2019-01-23T08:38:14.406Z,238.60
2019-01-23T08:39:14.407Z,233.80
2019-01-23T08:40:14.381Z,236.70
2019-01-23T08:41:14.412Z,242.50
2019-01-23T08:42:14.441Z,226.40
2019-01-23T08:43:14.365Z,237.00
2019-01-23T08:44:14.342Z,236.30
2019-01-23T08:45:14.337Z,236.10
2019-01-23T08:46:14.307Z,230.80
2019-01-23T08:47:14.347Z,232.90
2019-01-23T08:48:14.305Z,250.80
2019-01-23T08:49:14.279Z,240.10
2019-01-23T08:50:14.281Z,243.90
2019-01-23T08:51:14.275Z,241.70
2019-01-23T08:52:14.288Z,235.10
2019-01-23T08:53:14.253Z,239.30
2019-01-23T08:54:14.230Z,233.60
2019-01-23T08:55:14.224Z,243.60
2019-01-23T08:56:14.209Z,245.30
2019-01-23T08:57:14.286Z,254.20
2019-01-23T08:58:14.184Z,252.00
2019-01-23T08:59:14.174Z,244.90
2019-01-23T09:00:14.170Z,241.40
2019-01-23T09:01:14.165Z,245.00
2019-01-23T09:02:14.158Z,234.20
2019-01-23T09:03:14.121Z,253.30
2019-01-23T09:04:14.120Z,247.80
2019-01-23T09:05:14.119Z,255.10
2019-01-23T09:06:14.104Z,250.60
2019-01-23T09:07:14.137Z,250.30
2019-01-23T09:08:14.074Z,258.10
2019-01-23T09:09:14.065Z,248.20
2019-01-23T09:10:14.068Z,242.80
2019-01-23T09:11:14.044Z,252.50
2019-01-23T09:12:14.061Z,261.30
2019-01-23T09:13:14.028Z,252.00
2019-01-23T09:14:14.012Z,249.60
2019-01-23T09:15:14.024Z,254.90
2019-01-23T09:16:13.992Z,257.40
2019-01-23T09:17:14.002Z,257.30
2019-01-23T09:18:13.960Z,250.40
2019-01-23T09:19:13.980Z,252.30
2019-01-23T09:20:13.938Z,264.10
2019-01-23T09:21:13.931Z,254.80
2019-01-23T09:22:13.943Z,250.10
2019-01-23T09:23:13.912Z,243.10
2019-01-23T09:24:13.918Z,254.90
2019-01-23T09:25:13.895Z,261.50
2019-01-23T09:26:13.876Z,258.10
2019-01-23T09:27:13.884Z,265.90
2019-01-23T09:28:13.855Z,250.10
2019-01-23T09:29:13.850Z,256.80
2019-01-23T09:30:13.835Z,260.00
2019-01-23T09:31:13.831Z,265.00
2019-01-23T09:32:13.834Z,275.40
2019-01-23T09:33:13.806Z,266.70
2019-01-23T09:34:13.781Z,271.30
2019-01-23T09:35:13.810Z,269.00
2019-01-23T09:36:13.781Z,267.60
2019-01-23T09:37:13.808Z,265.00
2019-01-23T09:38:13.751Z,267.60
2019-01-23T09:39:13.748Z,255.50
2019-01-23T09:40:13.730Z,263.30
2019-01-23T09:41:13.710Z,264.40
2019-01-23T09:42:13.712Z,269.50
2019-01-23T09:43:13.706Z,272.10
2019-01-23T09:44:13.690Z,257.60
2019-01-23T09:45:13.685Z,262.50
2019-01-23T09:46:13.652Z,263.50
2019-01-23T09:47:13.646Z,258.40
2019-01-23T09:48:13.646Z,262.20
2019-01-23T09:49:13.626Z,261.50
2019-01-23T09:50:13.624Z,271.20
2019-01-23T09:51:13.594Z,275.00
2019-01-23T09:52:13.584Z,270.70
2019-01-23T09:53:13.592Z,267.30
2019-01-23T09:54:13.563Z,278.30
2019-01-23T09:55:13.557Z,262.80
2019-01-23T09:56:13.552Z,263.00
2019-01-23T09:57:13.532Z,271.10
2019-01-23T09:58:13.657Z,276.70
2019-01-23T09:59:13.513Z,282.40
2019-01-23T10:00:13.498Z,275.50
2019-01-23T10:01:13.486Z,273.40
2019-01-23T10:02:13.503Z,268.90
2019-01-23T10:03:13.498Z,267.20
2019-01-23T10:04:13.467Z,264.50
2019-01-23T10:05:13.452Z,275.60
2019-01-23T10:06:13.429Z,271.20
2019-01-23T10:07:13.437Z,271.70
2019-01-23T10:08:13.445Z,272.50
2019-01-23T10:09:13.404Z,274.50
2019-01-23T10:10:13.390Z,265.20
2019-01-23T10:11:13.377Z,274.50
2019-01-23T10:12:13.391Z,273.20
2019-01-23T10:13:13.396Z,265.30
2019-01-23T10:14:13.355Z,275.50
2019-01-23T10:15:13.351Z,275.20
2019-01-23T10:16:13.332Z,270.60
2019-01-23T10:17:13.321Z,263.70
2019-01-23T10:18:13.303Z,263.30
2019-01-23T10:19:13.311Z,265.90
2019-01-23T10:20:13.292Z,279.70
2019-01-23T10:21:13.272Z,261.10
2019-01-23T10:22:13.264Z,271.00
2019-01-23T10:23:13.258Z,274.00
2019-01-23T10:24:13.269Z,260.90
2019-01-23T10:25:13.218Z,274.00
2019-01-23T10:26:13.220Z,269.70
2019-01-23T10:27:13.212Z,270.40
2019-01-23T10:28:13.194Z,265.80
2019-01-23T10:29:13.219Z,269.50
2019-01-23T10:30:13.157Z,263.30
2019-01-23T10:31:13.155Z,269.30
2019-01-23T10:32:13.166Z,270.40
2019-01-23T10:33:13.140Z,261.80
2019-01-23T10:34:13.170Z,270.30
2019-01-23T10:35:13.135Z,257.70
2019-01-23T10:36:13.095Z,250.00
2019-01-23T10:37:19.368Z,253.90
2019-01-23T10:38:14.096Z,248.60
2019-01-23T10:39:13.108Z,259.80
2019-01-23T10:40:13.068Z,256.10
2019-01-23T10:41:13.078Z,262.80
2019-01-23T10:42:13.036Z,250.60
2019-01-23T10:43:13.024Z,248.90
2019-01-23T10:44:13.110Z,246.50
2019-01-23T10:45:13.018Z,243.20
2019-01-23T10:46:12.998Z,247.10
2019-01-23T10:47:12.991Z,248.60
2019-01-23T10:48:12.973Z,250.70
2019-01-23T10:49:12.976Z,242.20
2019-01-23T10:50:12.946Z,238.30
2019-01-23T10:51:12.943Z,244.30
2019-01-23T10:52:12.923Z,256.40
2019-01-23T10:53:12.923Z,237.10
2019-01-23T10:54:12.966Z,245.70
2019-01-23T10:55:12.898Z,251.40
2019-01-23T10:56:12.904Z,241.60
2019-01-23T10:57:12.891Z,242.90
2019-01-23T10:58:12.882Z,260.60
2019-01-23T10:59:12.918Z,254.90
2019-01-23T11:00:12.843Z,252.60
2019-01-23T11:01:13.443Z,232.60
2019-01-23T11:02:12.821Z,242.30
2019-01-23T11:03:12.818Z,243.80
2019-01-23T11:04:12.800Z,235.10
2019-01-23T11:05:12.804Z,235.50
2019-01-23T11:06:12.772Z,249.60
2019-01-23T11:07:12.767Z,249.20
2019-01-23T11:08:12.754Z,251.10
2019-01-23T11:09:12.774Z,248.40
2019-01-23T11:10:12.760Z,239.60
2019-01-23T11:11:12.709Z,247.90
2019-01-23T11:12:12.704Z,257.40
2019-01-23T11:13:12.692Z,259.60
2019-01-23T11:14:12.714Z,247.70
2019-01-23T11:15:12.717Z,239.80
2019-01-23T11:16:12.657Z,232.20
2019-01-23T11:17:12.656Z,237.60
2019-01-23T11:18:12.674Z,240.20
2019-01-23T11:19:12.652Z,240.50
2019-01-23T11:20:12.642Z,240.00
2019-01-23T11:21:12.636Z,238.40
2019-01-23T11:22:12.599Z,244.40
2019-01-23T11:23:12.582Z,245.20
2019-01-23T11:24:12.574Z,241.00
2019-01-23T11:25:12.578Z,243.40
2019-01-23T11:26:12.571Z,251.00
2019-01-23T11:27:12.548Z,247.10
2019-01-23T11:28:12.530Z,243.50
2019-01-23T11:29:12.516Z,240.90
2019-01-23T11:30:12.533Z,247.80
2019-01-23T11:31:12.496Z,239.20
2019-01-23T11:32:12.491Z,243.60
2019-01-23T11:33:12.470Z,247.80
2019-01-23T11:34:12.475Z,238.60
2019-01-23T11:35:12.476Z,243.30
2019-01-23T11:36:12.439Z,240.70
2019-01-23T11:37:12.440Z,238.30
2019-01-23T11:38:12.422Z,241.00
2019-01-23T11:39:12.452Z,244.00
2019-01-23T11:40:12.390Z,234.50
2019-01-23T11:41:12.411Z,240.90
2019-01-23T11:42:12.384Z,233.80
2019-01-23T11:43:12.894Z,247.40
2019-01-23T11:44:12.378Z,237.00
2019-01-23T11:45:12.343Z,240.60
2019-01-23T11:46:12.348Z,238.30
2019-01-23T11:47:12.328Z,235.60
2019-01-23T11:48:12.324Z,230.10
2019-01-23T11:49:12.335Z,235.70
2019-01-23T11:50:12.347Z,244.90
2019-01-23T11:51:12.294Z,234.10
2019-01-23T11:52:12.266Z,232.90
2019-01-23T11:53:12.400Z,237.40
2019-01-23T11:54:12.272Z,238.30
2019-01-23T11:55:12.247Z,241.80
2019-01-23T11:56:12.284Z,237.70
2019-01-23T11:57:12.214Z,230.40
2019-01-23T11:58:12.203Z,228.10
2019-01-23T11:59:12.190Z,221.80
2019-01-23T12:00:12.205Z,228.00
2019-01-23T12:01:12.194Z,231.20
2019-01-23T12:02:12.154Z,227.50
2019-01-23T12:03:12.133Z,226.30
2019-01-23T12:04:12.139Z,227.40
2019-01-23T12:05:12.143Z,231.40
2019-01-23T12:06:12.190Z,228.90
2019-01-23T12:07:12.100Z,233.80
2019-01-23T12:08:12.084Z,227.40
2019-01-23T12:09:12.087Z,221.20
2019-01-23T12:10:12.082Z,223.00
2019-01-23T12:11:12.079Z,226.70
2019-01-23T12:12:12.085Z,226.50
2019-01-23T12:13:12.090Z,232.90
2019-01-23T12:14:12.082Z,221.00
2019-01-23T12:15:12.021Z,222.50
2019-01-23T12:16:12.015Z,213.80
2019-01-23T12:17:12.017Z,219.10
2019-01-23T12:18:11.990Z,226.40
2019-01-23T12:19:11.976Z,223.50
2019-01-23T12:20:11.950Z,218.50
2019-01-23T12:21:12.043Z,217.60
2019-01-23T12:22:11.956Z,226.70
2019-01-23T12:23:11.996Z,229.80
2019-01-23T12:24:11.908Z,223.40
2019-01-23T12:25:11.898Z,220.40
2019-01-23T12:26:11.914Z,219.30
2019-01-23T12:27:11.882Z,214.50
2019-01-23T12:28:11.906Z,212.30
2019-01-23T12:29:11.864Z,218.90